createdAt,value
2023-01-19T00:01:31.957Z,4.72
2023-01-19T00:04:01.054Z,4.41
2023-01-19T00:06:29.030Z,3.98
2023-01-19T00:08:56.822Z,4.28
2023-01-19T00:11:24.870Z,4.44
2023-01-19T00:13:53.624Z,4.21
2023-01-19T00:16:23.452Z,4.18
2023-01-19T00:18:52.093Z,4.10
2023-01-19T00:21:22.647Z,4.30
2023-01-19T00:23:52.620Z,4.25
2023-01-19T00:26:22.691Z,4.62
2023-01-19T00:28:50.963Z,4.45
2023-01-19T00:31:20.583Z,4.81
2023-01-19T00:33:49.260Z,3.54
2023-01-19T00:36:17.227Z,4.37
2023-01-19T00:38:46.270Z,4.00
2023-01-19T00:41:13.931Z,4.60
2023-01-19T00:43:40.590Z,3.86
2023-01-19T00:46:08.342Z,3.74
2023-01-19T00:48:36.089Z,4.17
2023-01-19T00:51:03.846Z,3.47
2023-01-19T00:53:32.620Z,3.83
2023-01-19T00:56:01.690Z,4.03
2023-01-19T00:58:29.368Z,4.21
2023-01-19T01:01:03.483Z,3.76
2023-01-19T01:03:31.614Z,3.70
2023-01-19T01:05:59.274Z,3.89
2023-01-19T01:08:27.011Z,4.07
2023-01-19T01:10:55.877Z,3.81
2023-01-19T01:13:27.496Z,4.06
2023-01-19T01:15:56.755Z,4.01
2023-01-19T01:18:24.886Z,4.13
2023-01-19T01:20:54.571Z,4.17
2023-01-19T01:23:23.746Z,3.51
2023-01-19T01:25:51.480Z,3.58
2023-01-19T01:28:19.153Z,3.62
2023-01-19T01:30:48.334Z,3.79
2023-01-19T01:33:16.027Z,3.63
2023-01-19T01:36:03.651Z,4.31
2023-01-19T01:38:31.354Z,4.20
2023-01-19T01:40:59.431Z,3.92
2023-01-19T01:43:44.774Z,4.24
2023-01-19T01:46:16.222Z,4.20
2023-01-19T01:48:47.443Z,3.88
2023-01-19T01:51:27.618Z,4.04
2023-01-19T01:54:07.883Z,3.61
2023-01-19T01:56:37.938Z,4.38
2023-01-19T01:59:09.010Z,4.37
2023-01-19T02:01:55.759Z,4.15
2023-01-19T02:04:24.323Z,4.49
2023-01-19T02:07:09.723Z,4.53
2023-01-19T02:09:55.521Z,4.21
2023-01-19T02:12:41.277Z,4.78
2023-01-19T02:15:16.794Z,4.39
2023-01-19T02:17:45.874Z,3.95
2023-01-19T02:20:14.414Z,4.27
2023-01-19T02:22:47.560Z,4.65
2023-01-19T02:25:17.314Z,4.33
2023-01-19T02:27:45.278Z,4.52
2023-01-19T02:30:14.305Z,4.42
2023-01-19T02:32:42.028Z,4.88
2023-01-19T02:35:10.603Z,5.19
2023-01-19T02:37:40.149Z,4.40
2023-01-19T02:40:11.577Z,4.36
2023-01-19T02:42:44.750Z,4.80
2023-01-19T02:45:14.466Z,4.45
2023-01-19T02:47:45.010Z,4.93
2023-01-19T02:50:38.534Z,4.28
2023-01-19T02:53:16.077Z,4.76
2023-01-19T02:55:43.953Z,4.60
2023-01-19T02:58:12.922Z,4.32
2023-01-19T03:00:43.730Z,4.79
2023-01-19T03:03:17.185Z,4.56
2023-01-19T03:05:49.899Z,4.90
2023-01-19T03:08:18.320Z,4.93
2023-01-19T03:10:47.666Z,4.75
2023-01-19T03:13:18.021Z,4.91
2023-01-19T03:15:46.770Z,5.04
2023-01-19T03:18:15.419Z,4.95
2023-01-19T03:20:43.058Z,4.94
2023-01-19T03:23:11.463Z,5.10
2023-01-19T03:25:40.661Z,4.74
2023-01-19T03:28:08.143Z,5.31
2023-01-19T03:30:38.307Z,4.85
2023-01-19T03:33:07.253Z,4.65
2023-01-19T03:35:35.708Z,4.98
2023-01-19T03:38:04.384Z,5.07
2023-01-19T03:40:32.238Z,4.80
2023-01-19T03:43:00.317Z,5.21
2023-01-19T03:45:27.948Z,5.20
2023-01-19T03:47:57.167Z,4.98
2023-01-19T03:50:27.114Z,4.40
2023-01-19T03:53:01.841Z,4.55
2023-01-19T03:55:29.567Z,4.90
2023-01-19T03:57:57.085Z,4.96
2023-01-19T04:00:24.729Z,4.52
2023-01-19T04:02:52.318Z,3.95
2023-01-19T04:05:21.154Z,4.52
2023-01-19T04:07:49.171Z,4.31
2023-01-19T04:10:17.122Z,4.36
2023-01-19T04:12:44.657Z,4.66
2023-01-19T04:15:12.392Z,4.17
2023-01-19T04:17:40.186Z,4.58
2023-01-19T04:20:08.217Z,4.46
2023-01-19T04:22:39.067Z,4.27
2023-01-19T04:25:07.550Z,4.76
2023-01-19T04:27:35.047Z,4.84
2023-01-19T04:30:03.623Z,4.55
2023-01-19T04:32:31.474Z,4.40
2023-01-19T04:34:59.869Z,4.66
2023-01-19T04:37:27.448Z,4.38
2023-01-19T04:39:56.296Z,3.17
2023-01-19T04:42:23.948Z,4.28
2023-01-19T04:44:51.961Z,4.46
2023-01-19T04:47:19.666Z,4.29
2023-01-19T04:49:47.175Z,3.87
2023-01-19T04:52:14.717Z,3.69
2023-01-19T04:54:42.270Z,4.25
2023-01-19T04:57:11.097Z,4.15
2023-01-19T04:59:38.583Z,4.20
2023-01-19T05:02:06.199Z,4.18
2023-01-19T05:04:33.811Z,4.45
2023-01-19T05:07:01.265Z,4.40
2023-01-19T05:09:28.846Z,3.99
2023-01-19T05:11:56.591Z,4.29
2023-01-19T05:14:25.420Z,4.66
2023-01-19T05:16:52.911Z,4.54
2023-01-19T05:19:21.186Z,4.80
2023-01-19T05:21:48.664Z,4.26
2023-01-19T05:24:16.423Z,4.22
2023-01-19T05:26:43.923Z,4.82
2023-01-19T05:29:11.490Z,4.75
2023-01-19T05:31:40.400Z,4.58
2023-01-19T05:34:07.926Z,4.73
2023-01-19T05:36:35.408Z,5.31
2023-01-19T05:39:02.889Z,5.18
2023-01-19T05:41:30.387Z,5.12
2023-01-19T05:43:58.002Z,5.46
2023-01-19T05:46:25.613Z,4.68
2023-01-19T05:48:54.463Z,4.70
2023-01-19T05:51:22.005Z,4.92
2023-01-19T05:53:49.553Z,5.01
2023-01-19T05:56:17.041Z,4.41
2023-01-19T05:58:44.563Z,4.31
2023-01-19T06:01:12.106Z,4.73
2023-01-19T06:03:40.973Z,4.43
2023-01-19T06:06:10.001Z,4.77
2023-01-19T06:08:37.571Z,4.72
2023-01-19T06:11:06.384Z,4.57
2023-01-19T06:13:33.841Z,4.41
2023-01-19T06:16:02.631Z,4.57
2023-01-19T06:18:30.232Z,4.55
2023-01-19T06:20:59.538Z,4.40
2023-01-19T06:23:28.788Z,4.28
2023-01-19T06:25:56.419Z,4.59
2023-01-19T06:28:24.073Z,4.90
2023-01-19T06:30:51.753Z,4.73
2023-01-19T06:33:19.423Z,4.50
2023-01-19T06:35:47.268Z,5.26
2023-01-19T06:38:15.010Z,4.89
2023-01-19T06:40:43.859Z,5.05
2023-01-19T06:43:11.663Z,4.85
2023-01-19T06:45:39.476Z,5.34
2023-01-19T06:48:07.223Z,5.18
2023-01-19T06:50:34.723Z,4.85
2023-01-19T06:53:02.679Z,5.04
2023-01-19T06:55:30.390Z,4.72
2023-01-19T06:57:59.446Z,5.19
2023-01-19T07:00:27.220Z,5.65
2023-01-19T07:02:54.842Z,5.46
2023-01-19T07:05:22.715Z,5.34
2023-01-19T07:07:53.510Z,5.20
2023-01-19T07:10:21.083Z,4.96
2023-01-19T07:12:48.612Z,5.62
2023-01-19T07:15:19.451Z,5.61
2023-01-19T07:17:46.948Z,5.56
2023-01-19T07:20:14.585Z,4.89
2023-01-19T07:22:43.443Z,5.15
2023-01-19T07:25:11.463Z,5.28
2023-01-19T07:27:40.522Z,5.31
2023-01-19T07:30:08.662Z,5.17
2023-01-19T07:32:38.293Z,5.13
2023-01-19T07:35:06.203Z,5.42
2023-01-19T07:37:33.673Z,5.15
2023-01-19T07:40:01.159Z,5.16
2023-01-19T07:42:28.687Z,5.38
2023-01-19T07:44:56.208Z,5.63
2023-01-19T07:47:23.752Z,5.82
2023-01-19T07:49:53.172Z,5.61
2023-01-19T07:52:21.230Z,5.54
2023-01-19T07:54:50.939Z,5.57
2023-01-19T07:57:19.304Z,5.39
2023-01-19T07:59:46.834Z,5.39
2023-01-19T08:02:16.287Z,5.14
2023-01-19T08:04:43.987Z,5.51
2023-01-19T08:07:12.882Z,5.49
2023-01-19T08:09:40.393Z,5.12
2023-01-19T08:12:07.934Z,5.06
2023-01-19T08:14:35.505Z,5.24
2023-01-19T08:17:03.394Z,5.19
2023-01-19T08:19:30.885Z,5.16
2023-01-19T08:21:58.998Z,5.27
2023-01-19T08:24:29.391Z,5.29
2023-01-19T08:27:00.243Z,5.61
2023-01-19T08:29:27.891Z,5.54
2023-01-19T08:31:56.507Z,5.30
2023-01-19T08:34:24.158Z,5.34
2023-01-19T08:36:51.721Z,5.64
2023-01-19T08:39:19.226Z,5.53
2023-01-19T08:41:48.086Z,5.45
2023-01-19T08:44:16.018Z,5.60
2023-01-19T08:46:43.638Z,5.76
2023-01-19T08:49:11.258Z,6.27
2023-01-19T08:51:39.171Z,6.09
2023-01-19T08:54:06.809Z,5.69
2023-01-19T08:56:34.360Z,5.95
2023-01-19T08:59:09.984Z,5.99
2023-01-19T09:01:38.575Z,6.29
2023-01-19T09:04:06.449Z,6.16
2023-01-19T09:06:34.206Z,5.96
2023-01-19T09:09:01.773Z,6.34
2023-01-19T09:11:29.334Z,6.17
2023-01-19T09:13:56.856Z,5.81
2023-01-19T09:16:27.010Z,5.77
2023-01-19T09:18:54.737Z,6.34
2023-01-19T09:21:22.250Z,6.39
2023-01-19T09:23:50.127Z,6.28
2023-01-19T09:26:17.735Z,6.34
2023-01-19T09:28:45.290Z,5.88
2023-01-19T09:31:12.820Z,6.01
2023-01-19T09:33:41.875Z,6.23
2023-01-19T09:36:09.372Z,5.94
2023-01-19T09:38:36.882Z,5.70
2023-01-19T09:41:05.030Z,5.92
2023-01-19T09:43:37.050Z,6.00
2023-01-19T09:46:05.124Z,5.58
2023-01-19T09:48:34.526Z,5.39
2023-01-19T09:51:04.241Z,5.71
2023-01-19T09:53:39.789Z,5.24
2023-01-19T09:56:09.400Z,5.53
2023-01-19T09:58:36.862Z,5.64
2023-01-19T10:01:06.530Z,5.72
2023-01-19T10:03:34.127Z,5.79
2023-01-19T10:06:03.809Z,5.76
2023-01-19T10:08:32.396Z,6.07
2023-01-19T10:10:59.885Z,6.14
2023-01-19T10:13:30.145Z,6.08
2023-01-19T10:16:01.040Z,5.70
2023-01-19T10:18:34.544Z,5.62
2023-01-19T10:21:05.554Z,5.64
2023-01-19T10:23:36.103Z,6.04
2023-01-19T10:26:05.694Z,5.72
2023-01-19T10:28:33.184Z,5.74
2023-01-19T10:31:00.919Z,6.12
2023-01-19T10:33:28.565Z,6.31
2023-01-19T10:35:56.194Z,6.84
2023-01-19T10:38:25.109Z,6.55
2023-01-19T10:40:54.574Z,6.76
2023-01-19T10:43:38.211Z,6.47
2023-01-19T10:46:08.987Z,6.58
2023-01-19T10:48:40.047Z,6.32
2023-01-19T10:51:07.648Z,6.20
2023-01-19T10:53:36.589Z,6.67
2023-01-19T10:56:11.695Z,6.20
2023-01-19T10:58:40.334Z,7.23
2023-01-19T11:01:14.131Z,6.35
2023-01-19T11:03:41.771Z,6.67
2023-01-19T11:06:26.105Z,6.42
2023-01-19T11:08:55.424Z,6.92
2023-01-19T11:11:23.081Z,6.64
2023-01-19T11:14:03.342Z,6.60
2023-01-19T11:16:31.495Z,6.55
2023-01-19T11:19:01.932Z,6.33
2023-01-19T11:21:30.260Z,6.49
2023-01-19T11:23:59.439Z,6.90
2023-01-19T11:26:27.983Z,6.71
2023-01-19T11:28:56.061Z,6.90
2023-01-19T11:31:31.200Z,6.84
2023-01-19T11:33:59.331Z,7.07
2023-01-19T11:36:27.370Z,7.22
2023-01-19T11:38:55.993Z,6.98
2023-01-19T11:41:27.404Z,7.49
2023-01-19T11:43:55.967Z,6.95
2023-01-19T11:46:24.398Z,6.94
2023-01-19T11:48:57.298Z,6.69
2023-01-19T11:51:24.854Z,6.61
2023-01-19T11:53:53.169Z,6.60
2023-01-19T11:56:23.121Z,7.04
2023-01-19T11:58:52.041Z,7.37
2023-01-19T12:01:21.900Z,7.44
2023-01-19T12:03:54.615Z,7.61
2023-01-19T12:06:23.187Z,7.29
2023-01-19T12:08:51.995Z,7.03
2023-01-19T12:11:20.038Z,7.17
2023-01-19T12:13:47.595Z,7.10
2023-01-19T12:16:22.175Z,7.59
2023-01-19T12:18:51.060Z,7.17
2023-01-19T12:21:18.590Z,7.60
2023-01-19T12:23:48.303Z,8.02
2023-01-19T12:26:33.542Z,8.23
2023-01-19T12:29:01.529Z,7.83
2023-01-19T12:31:30.591Z,7.84
2023-01-19T12:34:05.199Z,7.75
2023-01-19T12:36:36.519Z,7.83
2023-01-19T12:39:04.383Z,8.24
2023-01-19T12:41:32.587Z,8.28
2023-01-19T12:44:16.300Z,8.54
2023-01-19T12:46:46.034Z,8.24
2023-01-19T12:49:17.545Z,8.08
2023-01-19T12:51:45.698Z,8.00
2023-01-19T12:54:18.438Z,7.88
2023-01-19T12:56:46.902Z,7.99
2023-01-19T12:59:21.587Z,7.70
2023-01-19T13:02:04.056Z,7.36
2023-01-19T13:04:33.801Z,7.58
2023-01-19T13:07:10.358Z,7.52
2023-01-19T13:09:38.542Z,7.83
2023-01-19T13:12:13.613Z,8.17
2023-01-19T13:14:41.508Z,8.89
2023-01-19T13:17:26.137Z,8.64
2023-01-19T13:19:57.275Z,7.85
2023-01-19T13:22:57.703Z,7.95
2023-01-19T13:25:29.561Z,9.01
2023-01-19T13:27:57.110Z,9.15
2023-01-19T13:30:26.990Z,8.62
2023-01-19T13:32:55.292Z,7.64
2023-01-19T13:35:24.149Z,7.36
2023-01-19T13:37:51.659Z,6.69
2023-01-19T13:40:19.859Z,6.80
2023-01-19T13:42:48.038Z,7.34
2023-01-19T13:45:29.647Z,7.05
2023-01-19T13:47:57.935Z,6.98
2023-01-19T13:50:27.541Z,6.46
2023-01-19T13:52:56.623Z,6.92
2023-01-19T13:55:24.539Z,7.25
2023-01-19T13:57:54.469Z,7.55
2023-01-19T14:00:23.041Z,7.92
2023-01-19T14:02:58.751Z,8.20
2023-01-19T14:05:29.032Z,8.07
2023-01-19T14:08:06.725Z,8.08
2023-01-19T14:10:34.454Z,8.14
2023-01-19T14:13:02.409Z,8.44
2023-01-19T14:15:30.018Z,7.44
2023-01-19T14:18:19.665Z,7.61
2023-01-19T14:20:54.011Z,7.58
2023-01-19T14:23:38.112Z,6.80
2023-01-19T14:26:05.934Z,6.58
2023-01-19T14:28:39.336Z,6.55
2023-01-19T14:31:19.077Z,6.05
2023-01-19T14:33:47.141Z,6.44
2023-01-19T14:36:23.869Z,5.68
2023-01-19T14:38:51.528Z,5.63
2023-01-19T14:41:23.182Z,5.40
2023-01-19T14:43:50.760Z,5.24
2023-01-19T14:46:18.617Z,4.89
2023-01-19T14:48:47.112Z,5.27
2023-01-19T14:51:16.096Z,5.13
2023-01-19T14:53:47.267Z,5.24
2023-01-19T14:56:14.763Z,5.93
2023-01-19T14:58:42.254Z,5.74
2023-01-19T15:01:09.828Z,5.73
2023-01-19T15:03:45.832Z,5.36
2023-01-19T15:06:13.715Z,5.38
2023-01-19T15:08:41.234Z,5.63
2023-01-19T15:11:10.927Z,5.54
2023-01-19T15:13:39.115Z,5.78
2023-01-19T15:16:08.802Z,5.69
2023-01-19T15:18:36.588Z,5.25
2023-01-19T15:21:04.300Z,6.11
2023-01-19T15:23:31.836Z,5.48
2023-01-19T15:26:00.125Z,5.92
2023-01-19T15:28:29.047Z,6.08
2023-01-19T15:30:57.678Z,5.77
2023-01-19T15:33:26.284Z,5.90
2023-01-19T15:35:53.949Z,6.12
2023-01-19T15:38:22.354Z,6.13
2023-01-19T15:40:51.663Z,6.86
2023-01-19T15:43:21.014Z,7.38
2023-01-19T15:45:50.718Z,7.54
2023-01-19T15:48:19.956Z,7.47
2023-01-19T15:50:47.849Z,7.16
2023-01-19T15:53:15.839Z,7.16
2023-01-19T15:55:43.308Z,6.74
2023-01-19T15:58:13.896Z,6.66
2023-01-19T16:00:41.573Z,6.27
2023-01-19T16:03:11.038Z,6.45
2023-01-19T16:05:43.432Z,6.45
2023-01-19T16:08:11.644Z,6.43
2023-01-19T16:10:39.258Z,6.32
2023-01-19T16:13:06.754Z,6.32
2023-01-19T16:15:35.303Z,6.09
2023-01-19T16:18:02.938Z,6.28
2023-01-19T16:20:32.388Z,6.25
2023-01-19T16:23:13.552Z,6.14
2023-01-19T16:25:41.814Z,6.05
2023-01-19T16:28:09.386Z,6.35
2023-01-19T16:30:36.942Z,5.96
2023-01-19T16:33:05.247Z,5.83
2023-01-19T16:35:34.203Z,5.82
2023-01-19T16:38:01.780Z,5.54
2023-01-19T16:40:29.384Z,5.47
2023-01-19T16:42:56.923Z,5.62
2023-01-19T16:45:24.469Z,5.45
2023-01-19T16:47:52.241Z,5.55
2023-01-19T16:50:19.810Z,5.52
2023-01-19T16:52:50.584Z,5.27
2023-01-19T16:55:18.261Z,5.60
2023-01-19T16:57:45.809Z,5.57
2023-01-19T17:00:13.972Z,5.30
2023-01-19T17:02:42.621Z,5.54
2023-01-19T17:05:10.478Z,5.65
2023-01-19T17:07:38.055Z,5.60
2023-01-19T17:10:07.921Z,5.68
2023-01-19T17:12:35.426Z,5.84
2023-01-19T17:15:02.968Z,5.47
2023-01-19T17:17:30.494Z,5.42
2023-01-19T17:20:00.021Z,5.45
2023-01-19T17:22:27.551Z,5.32
2023-01-19T17:24:55.109Z,5.34
2023-01-19T17:27:23.927Z,5.37
2023-01-19T17:29:51.401Z,5.49
2023-01-19T17:32:18.863Z,5.45
2023-01-19T17:34:47.082Z,5.40
2023-01-19T17:37:14.569Z,5.25
2023-01-19T17:39:42.156Z,5.21
2023-01-19T17:42:10.112Z,4.86
2023-01-19T17:44:38.936Z,4.80
2023-01-19T17:47:06.419Z,4.79
2023-01-19T17:49:33.930Z,4.36
2023-01-19T17:52:01.417Z,4.82
2023-01-19T17:54:28.898Z,4.37
2023-01-19T17:56:56.428Z,4.67
2023-01-19T17:59:23.987Z,4.81
2023-01-19T18:01:52.903Z,4.94
2023-01-19T18:04:20.661Z,4.95
2023-01-19T18:06:49.075Z,5.26
2023-01-19T18:09:16.606Z,5.47
2023-01-19T18:11:45.238Z,5.50
2023-01-19T18:14:12.738Z,5.64
2023-01-19T18:16:40.434Z,5.71
2023-01-19T18:19:09.461Z,5.26
2023-01-19T18:21:38.070Z,4.86
2023-01-19T18:24:05.914Z,5.07
2023-01-19T18:26:33.961Z,5.09
2023-01-19T18:29:01.611Z,5.04
2023-01-19T18:31:29.173Z,5.37
2023-01-19T18:33:56.684Z,5.01
2023-01-19T18:36:25.567Z,4.69
2023-01-19T18:38:53.643Z,4.90
2023-01-19T18:41:21.598Z,5.00
2023-01-19T18:43:49.141Z,5.04
2023-01-19T18:46:16.805Z,5.29
2023-01-19T18:48:44.365Z,5.28
2023-01-19T18:51:12.446Z,5.36
2023-01-19T18:53:41.417Z,5.41
2023-01-19T18:56:10.140Z,5.12
2023-01-19T18:58:37.902Z,4.98
2023-01-19T19:01:05.811Z,4.90
2023-01-19T19:03:33.288Z,4.77
2023-01-19T19:06:02.891Z,4.66
2023-01-19T19:08:30.739Z,4.38
2023-01-19T19:10:59.558Z,4.75
2023-01-19T19:13:27.123Z,5.12
2023-01-19T19:15:56.885Z,4.91
2023-01-19T19:18:24.446Z,4.78
2023-01-19T19:20:51.937Z,4.65
2023-01-19T19:23:19.475Z,4.46
2023-01-19T19:25:47.174Z,4.01
2023-01-19T19:28:16.043Z,4.58
2023-01-19T19:30:44.514Z,4.39
2023-01-19T19:33:11.998Z,3.86
2023-01-19T19:35:39.485Z,3.88
2023-01-19T19:38:07.029Z,4.27
2023-01-19T19:40:34.524Z,4.21
2023-01-19T19:43:01.989Z,4.36
2023-01-19T19:45:30.942Z,4.22
2023-01-19T19:47:58.450Z,4.26
2023-01-19T19:50:25.932Z,4.40
2023-01-19T19:52:53.413Z,4.54
2023-01-19T19:55:20.934Z,4.48
2023-01-19T19:57:48.504Z,4.62
2023-01-19T20:00:16.390Z,4.49
2023-01-19T20:02:45.586Z,4.26
2023-01-19T20:05:13.126Z,4.29
2023-01-19T20:07:46.225Z,4.15
2023-01-19T20:10:14.085Z,4.08
2023-01-19T20:12:41.714Z,3.78
2023-01-19T20:15:09.882Z,3.78
2023-01-19T20:17:37.563Z,3.62
2023-01-19T20:20:07.122Z,3.60
2023-01-19T20:22:34.666Z,3.68
2023-01-19T20:25:02.194Z,3.74
2023-01-19T20:27:29.883Z,3.50
2023-01-19T20:29:58.363Z,3.90
2023-01-19T20:32:25.954Z,4.13
2023-01-19T20:34:53.448Z,3.87
2023-01-19T20:37:22.353Z,3.94
2023-01-19T20:39:49.870Z,3.89
2023-01-19T20:42:17.368Z,4.16
2023-01-19T20:44:44.903Z,3.79
2023-01-19T20:47:12.453Z,3.76
2023-01-19T20:49:40.016Z,4.06
2023-01-19T20:52:07.490Z,4.34
2023-01-19T20:54:36.386Z,4.11
2023-01-19T20:57:03.887Z,4.18
2023-01-19T20:59:31.378Z,4.01
2023-01-19T21:01:59.002Z,3.95
2023-01-19T21:04:26.509Z,3.93
2023-01-19T21:06:54.059Z,4.25
2023-01-19T21:09:22.855Z,4.22
2023-01-19T21:11:51.719Z,3.71
2023-01-19T21:14:19.259Z,4.59
2023-01-19T21:16:46.821Z,4.42
2023-01-19T21:19:14.337Z,4.03
2023-01-19T21:21:41.906Z,4.28
2023-01-19T21:24:10.262Z,4.60
2023-01-19T21:26:38.007Z,4.20
2023-01-19T21:29:06.965Z,3.76
2023-01-19T21:31:34.517Z,3.95
2023-01-19T21:34:02.113Z,4.62
2023-01-19T21:36:29.627Z,4.25
2023-01-19T21:39:00.492Z,4.17
2023-01-19T21:41:28.293Z,4.16
2023-01-19T21:43:55.768Z,4.19
2023-01-19T21:46:28.987Z,4.07
2023-01-19T21:48:56.849Z,3.88
2023-01-19T21:51:24.346Z,4.08
2023-01-19T21:53:52.288Z,3.83
2023-01-19T21:56:19.789Z,3.68
2023-01-19T21:58:47.279Z,3.15
2023-01-19T22:01:15.088Z,3.54
2023-01-19T22:03:44.086Z,3.28
2023-01-19T22:06:12.297Z,3.55
2023-01-19T22:08:39.841Z,3.16
2023-01-19T22:11:07.828Z,3.40
2023-01-19T22:13:35.834Z,3.24
2023-01-19T22:16:03.773Z,3.33
2023-01-19T22:18:31.311Z,2.74
2023-01-19T22:21:09.025Z,3.41
2023-01-19T22:23:36.645Z,2.90
2023-01-19T22:26:04.288Z,3.64
2023-01-19T22:28:31.866Z,3.39
2023-01-19T22:31:03.710Z,3.70
2023-01-19T22:33:31.321Z,3.98
2023-01-19T22:36:11.206Z,4.02
2023-01-19T22:38:40.040Z,3.91
2023-01-19T22:41:14.625Z,3.80
2023-01-19T22:43:42.132Z,3.43
2023-01-19T22:46:09.649Z,3.56
2023-01-19T22:48:37.430Z,3.35
2023-01-19T22:51:04.999Z,3.65
2023-01-19T22:53:33.937Z,3.41
2023-01-19T22:56:01.458Z,3.63
2023-01-19T22:58:29.143Z,3.14
2023-01-19T23:00:56.749Z,3.42
2023-01-19T23:03:24.310Z,3.40
2023-01-19T23:05:51.857Z,2.92
2023-01-19T23:08:19.383Z,3.09
2023-01-19T23:10:48.278Z,2.78
2023-01-19T23:13:15.823Z,3.90
2023-01-19T23:15:43.333Z,2.96
2023-01-19T23:18:10.826Z,3.16
2023-01-19T23:20:38.348Z,3.45
2023-01-19T23:23:05.988Z,3.86
2023-01-19T23:25:33.479Z,3.89
2023-01-19T23:28:02.340Z,3.80
2023-01-19T23:30:29.835Z,3.74
2023-01-19T23:32:57.379Z,4.03
2023-01-19T23:35:24.838Z,4.14
2023-01-19T23:37:52.317Z,3.87
2023-01-19T23:40:19.847Z,4.06
2023-01-19T23:42:47.321Z,4.12
2023-01-19T23:45:16.295Z,4.28
2023-01-19T23:47:44.094Z,4.39
2023-01-19T23:50:12.296Z,4.18
2023-01-19T23:52:39.784Z,4.29
2023-01-19T23:55:07.915Z,3.93
2023-01-19T23:57:35.425Z,4.14
